»·PEaware :: N707CP KGJT-KPVU

N707CP :: KGJT-KPVU

FLIGHT INFORMATION

Flight Status: Arrived
Operator: Privately registered:
United States
More flights under this callsign
Pilot: Chase W. (8260)
Aircraft: BEECH AIRCRAFT BONANZA
(BE36)
More flights by this aircraft type
Origin: KGJT Walker
United States
Destination: KPVU Provo Mun
United States
More flights between these airports :: More routes between these airports
Route: +GRAND1 JISIG V134 YMONT
File this flight plan on PilotEdge
Remarks:
Altitude:
(Current/Filed)
14,000ft
Speed:
(Current/Filed)
160kts
Departed: 08-Oct-17 01:39 PM
Arrived: 08-Oct-17 02:49 PM
Distance/Time
Traveled:
161nm/1:09
Distance/Time
To Go:
Arrived

Flight Plot

Page will automatically refresh every two minutes.

Flight plan parsing failed; only flown route is shown


Map Options




Map Legend


Flown Route
Filed Route
Departure Airport
Arrival Airport
Navaid (VOR, NDB)
Fix

Horizontal Profiles

Position Reports

Time Latitude Longitude Heading Altitude Ground
Speed
08-Oct-17 13:28 39.120420 -108.522425 303 4860ft 0kts
08-Oct-17 13:29 39.120420 -108.522425 303 4860ft 0kts
08-Oct-17 13:30 39.120420 -108.522425 303 4860ft 0kts
08-Oct-17 13:31 39.120420 -108.522425 303 4860ft 0kts
08-Oct-17 13:32 39.120420 -108.522425 303 4860ft 0kts
08-Oct-17 13:33 39.120420 -108.522425 303 4860ft 0kts
08-Oct-17 13:34 39.120420 -108.522425 303 4860ft 0kts
08-Oct-17 13:35 39.120420 -108.522425 303 4860ft 0kts
08-Oct-17 13:36 39.120420 -108.522425 303 4860ft 0kts
08-Oct-17 13:37 39.120455 -108.522450 11 4860ft 0kts
08-Oct-17 13:38 39.120754 -108.522144 36 4861ft 4kts
08-Oct-17 13:39 39.120912 -108.521995 34 4861ft 0kts
08-Oct-17 13:40 39.120912 -108.521995 34 4861ft 0kts
08-Oct-17 13:41 39.119967 -108.519480 128 4860ft 19kts
08-Oct-17 13:42 39.118245 -108.516327 125 4860ft 0kts
08-Oct-17 13:43 39.124614 -108.525422 305 4885ft 94kts
08-Oct-17 13:44 39.142453 -108.557450 305 5425ft 122kts
08-Oct-17 13:45 39.162020 -108.592633 305 6183ft 124kts
08-Oct-17 13:46 39.181497 -108.627661 305 6913ft 123kts
08-Oct-17 13:47 39.199816 -108.660603 305 7569ft 123kts
08-Oct-17 13:49 39.219316 -108.696041 295 8234ft 123kts
08-Oct-17 13:50 39.213060 -108.738094 253 8865ft 122kts
08-Oct-17 13:51 39.203654 -108.779313 253 9463ft 122kts
08-Oct-17 13:52 39.194231 -108.820627 253 10034ft 122kts
08-Oct-17 13:53 39.184861 -108.861745 253 10574ft 122kts
08-Oct-17 13:54 39.175454 -108.903065 253 11090ft 122kts
08-Oct-17 13:55 39.166153 -108.943964 253 11575ft 122kts
08-Oct-17 13:55 39.158333 -108.978379 253 11965ft 121kts
08-Oct-17 13:57 39.147547 -109.025864 253 12477ft 121kts
08-Oct-17 13:57 39.140326 -109.060222 274 12820ft 122kts
08-Oct-17 13:59 39.152742 -109.107412 289 13287ft 121kts
08-Oct-17 14:00 39.164265 -109.147695 290 13669ft 121kts
08-Oct-17 14:00 39.173950 -109.181231 290 13972ft 121kts
08-Oct-17 14:01 39.186399 -109.224099 290 14056ft 141kts
08-Oct-17 14:03 39.203335 -109.282214 290 14049ft 157kts
08-Oct-17 14:03 39.216148 -109.326249 290 14047ft 162kts
08-Oct-17 14:04 39.231733 -109.379923 290 14046ft 165kts
08-Oct-17 14:05 39.247556 -109.434556 290 14046ft 166kts
08-Oct-17 14:06 39.263525 -109.489825 290 14045ft 166kts
08-Oct-17 14:07 39.279297 -109.544536 290 14045ft 166kts
08-Oct-17 14:08 39.295065 -109.599348 290 14045ft 166kts
08-Oct-17 14:09 39.310417 -109.652843 289 14045ft 166kts
08-Oct-17 14:10 39.324813 -109.704286 289 14045ft 166kts
08-Oct-17 14:11 39.340356 -109.759161 289 14045ft 166kts
08-Oct-17 14:12 39.355831 -109.813543 290 14045ft 166kts
08-Oct-17 14:13 39.371284 -109.867868 290 14046ft 167kts
08-Oct-17 14:14 39.386996 -109.923178 290 14046ft 169kts
08-Oct-17 14:15 39.402912 -109.979304 290 14045ft 169kts
08-Oct-17 14:16 39.418562 -110.034608 290 14045ft 170kts
08-Oct-17 14:17 39.434287 -110.090288 290 14046ft 170kts
08-Oct-17 14:18 39.449896 -110.145676 290 14045ft 171kts
08-Oct-17 14:19 39.465683 -110.201819 290 14045ft 171kts
08-Oct-17 14:20 39.477491 -110.259230 275 14023ft 172kts
08-Oct-17 14:21 39.485993 -110.318092 284 14018ft 172kts
08-Oct-17 14:22 39.499395 -110.376094 288 14018ft 171kts
08-Oct-17 14:23 39.514031 -110.432761 288 14018ft 171kts
08-Oct-17 14:24 39.528920 -110.489864 288 14016ft 170kts
08-Oct-17 14:25 39.543279 -110.544953 289 14016ft 164kts
08-Oct-17 14:26 39.557254 -110.598497 289 14017ft 161kts
08-Oct-17 14:27 39.570971 -110.650995 288 14017ft 160kts
08-Oct-17 14:28 39.585544 -110.700999 291 14018ft 160kts
08-Oct-17 14:29 39.601534 -110.752974 291 14018ft 160kts
08-Oct-17 14:30 39.617438 -110.804622 291 14018ft 159kts
08-Oct-17 14:31 39.633352 -110.856268 291 14018ft 159kts
08-Oct-17 14:32 39.649226 -110.907739 291 14018ft 159kts
08-Oct-17 14:33 39.667375 -110.957436 328 14009ft 159kts
08-Oct-17 14:34 39.704685 -110.983181 329 14018ft 159kts
08-Oct-17 14:35 39.741008 -111.011011 329 14018ft 159kts
08-Oct-17 14:36 39.773530 -111.045065 306 14019ft 159kts
08-Oct-17 14:37 39.799172 -111.089591 306 14018ft 159kts
08-Oct-17 14:38 39.824930 -111.134182 307 14018ft 159kts
08-Oct-17 14:39 39.850606 -111.178594 307 14018ft 160kts
08-Oct-17 14:40 39.876493 -111.223398 307 14018ft 160kts
08-Oct-17 14:41 39.902034 -111.267652 307 14018ft 160kts
08-Oct-17 14:42 39.927783 -111.312324 307 14018ft 160kts
08-Oct-17 14:43 39.953739 -111.357416 307 14018ft 160kts
08-Oct-17 14:44 39.979821 -111.402792 307 13966ft 163kts
08-Oct-17 14:45 40.007853 -111.445318 316 13870ft 166kts
08-Oct-17 14:46 40.039791 -111.488967 312 13570ft 180kts
08-Oct-17 14:47 40.071657 -111.535887 310 13082ft 187kts
08-Oct-17 14:48 40.102069 -111.583520 310 12239ft 192kts
08-Oct-17 14:49 40.131114 -111.627307 313 9282ft 170kts
08-Oct-17 14:50 40.157714 -111.663928 316 6798ft 143kts
08-Oct-17 14:51 40.184368 -111.691647 326 5202ft 114kts
08-Oct-17 14:52 40.205913 -111.711007 325 4670ft 100kts
08-Oct-17 14:53 40.218441 -111.721996 331 4501ft 14kts
08-Oct-17 14:54 40.218161 -111.719256 139 4500ft 13kts
08-Oct-17 14:55 40.218008 -111.718427 230 4501ft 0kts

Navigation Log

Ident Type
Flight plan parsing failed, navigation log unavailable